Eaton Center, New Hampshire
Current Conditions -  °F | °C
As of 2:54 AM on Monday 22 Dec 2014 (Local Time) from KIZG Reporting Station
Overcast Overcast  
Wind Chill: 26°   Ceiling: 4800
Heat Index: 26°   Visibility: 10mi
Dew Point: 22°   Wind: 0mph
Humidity: 84%   Direction: NA
Pressure: 30.38"   Gusts: NA
Location:  43.91°N, 71.08°W
Report Text: KIZG 220754Z AUTO 00000KT 10SM FEW032 OVC048 M03/M06 A3038 RMK AO2 UPB0657E23 SLP295 P0000 T10331056
Loading
Personal Weather Stations






























Interactive Weather Map New forecast layout! Learn more

10-Day Weather Forecast

Advertisements
Track Severe Weather on mobile